createdAt,value
2018-07-01T00:01:01.499Z,16.84
2018-07-01T00:03:30.663Z,16.75
2018-07-01T00:05:59.862Z,16.75
2018-07-01T00:08:29.039Z,16.64
2018-07-01T00:11:04.976Z,16.69
2018-07-01T00:13:34.124Z,16.64
2018-07-01T00:16:03.363Z,16.60
2018-07-01T00:18:32.595Z,16.59
2018-07-01T00:21:01.767Z,16.54
2018-07-01T00:23:30.939Z,16.56
2018-07-01T00:26:00.482Z,16.47
2018-07-01T00:28:30.056Z,16.48
2018-07-01T00:30:59.361Z,16.39
2018-07-01T00:33:28.535Z,16.35
2018-07-01T00:35:57.729Z,16.38
2018-07-01T00:38:26.878Z,16.31
2018-07-01T00:40:56.077Z,16.25
2018-07-01T00:43:25.251Z,16.25
2018-07-01T00:45:55.375Z,16.27
2018-07-01T00:48:24.546Z,16.23
2018-07-01T00:50:53.726Z,16.20
2018-07-01T00:53:23.019Z,16.26
2018-07-01T00:55:52.182Z,16.26
2018-07-01T00:58:21.355Z,16.22
2018-07-01T01:00:50.557Z,16.19
2018-07-01T01:03:19.980Z,16.19
2018-07-01T01:05:49.155Z,16.20
2018-07-01T01:08:18.318Z,16.20
2018-07-01T01:10:47.523Z,16.18
2018-07-01T01:13:16.689Z,16.11
2018-07-01T01:15:45.885Z,16.10
2018-07-01T01:18:15.060Z,16.05
2018-07-01T01:20:44.239Z,16.05
2018-07-01T01:23:13.414Z,15.92
2018-07-01T01:25:42.672Z,15.82
2018-07-01T01:28:11.827Z,15.85
2018-07-01T01:30:41.008Z,15.75
2018-07-01T01:33:10.231Z,15.71
2018-07-01T01:35:39.423Z,15.63
2018-07-01T01:38:08.615Z,15.53
2018-07-01T01:40:47.980Z,15.39
2018-07-01T01:43:25.166Z,15.40
2018-07-01T01:45:59.630Z,15.37
2018-07-01T01:48:36.754Z,15.35
2018-07-01T01:51:12.403Z,15.29
2018-07-01T01:54:17.063Z,15.14
2018-07-01T01:57:05.229Z,15.17
2018-07-01T01:59:54.306Z,15.07
2018-07-01T02:03:26.636Z,14.97
2018-07-01T02:06:00.495Z,14.96
2018-07-01T02:08:32.523Z,14.94
2018-07-01T02:11:01.699Z,14.89
2018-07-01T02:13:31.931Z,14.80
2018-07-01T02:16:04.412Z,14.80
2018-07-01T02:18:33.653Z,14.79
2018-07-01T02:21:02.895Z,14.80
2018-07-01T02:23:35.635Z,14.71
2018-07-01T02:26:05.556Z,14.60
2018-07-01T02:28:34.759Z,14.56
2018-07-01T02:31:04.003Z,14.50
2018-07-01T02:33:33.204Z,14.45
2018-07-01T02:36:02.699Z,14.43
2018-07-01T02:38:32.318Z,14.44
2018-07-01T02:41:01.623Z,14.45
2018-07-01T02:43:31.344Z,14.40
2018-07-01T02:46:00.524Z,14.40
2018-07-01T02:48:30.856Z,14.45
2018-07-01T02:51:00.008Z,14.54
2018-07-01T02:53:29.291Z,14.46
2018-07-01T02:55:58.479Z,14.47
2018-07-01T02:58:27.655Z,14.51
2018-07-01T03:00:57.030Z,14.46
2018-07-01T03:03:26.247Z,14.57
2018-07-01T03:05:55.411Z,14.51
2018-07-01T03:08:24.571Z,14.47
2018-07-01T03:10:53.788Z,14.46
2018-07-01T03:13:22.981Z,14.40
2018-07-01T03:15:52.288Z,14.51
2018-07-01T03:18:21.456Z,14.51
2018-07-01T03:20:50.639Z,14.60
2018-07-01T03:23:19.976Z,14.65
2018-07-01T03:25:49.195Z,14.58
2018-07-01T03:28:18.579Z,14.55
2018-07-01T03:30:48.029Z,14.56
2018-07-01T03:33:17.199Z,14.57
2018-07-01T03:35:46.547Z,14.56
2018-07-01T03:38:15.702Z,14.50
2018-07-01T03:40:44.986Z,14.59
2018-07-01T03:43:14.154Z,14.59
2018-07-01T03:45:43.480Z,14.60
2018-07-01T03:48:12.658Z,14.58
2018-07-01T03:50:41.842Z,14.60
2018-07-01T03:53:11.007Z,14.64
2018-07-01T03:55:40.187Z,14.62
2018-07-01T03:58:09.383Z,14.60
2018-07-01T04:00:38.571Z,14.69
2018-07-01T04:03:07.755Z,14.72
2018-07-01T04:05:36.943Z,14.70
2018-07-01T04:08:06.858Z,14.68
2018-07-01T04:10:36.053Z,14.72
2018-07-01T04:13:05.251Z,14.69
2018-07-01T04:15:34.471Z,14.79
2018-07-01T04:18:03.645Z,14.76
2018-07-01T04:20:32.826Z,14.77
2018-07-01T04:23:01.987Z,14.75
2018-07-01T04:25:31.500Z,14.68
2018-07-01T04:28:00.684Z,14.72
2018-07-01T04:30:29.996Z,14.77
2018-07-01T04:32:59.167Z,14.88
2018-07-01T04:35:28.479Z,14.89
2018-07-01T04:37:57.659Z,14.96
2018-07-01T04:40:26.853Z,15.04
2018-07-01T04:42:56.158Z,15.05
2018-07-01T04:45:25.479Z,15.01
2018-07-01T04:47:55.466Z,15.03
2018-07-01T04:50:24.647Z,15.07
2018-07-01T04:52:54.619Z,15.12
2018-07-01T04:55:24.039Z,15.11
2018-07-01T04:57:52.984Z,15.27
2018-07-01T05:00:22.387Z,15.32
2018-07-01T05:02:51.605Z,15.34
2018-07-01T05:05:20.769Z,15.36
2018-07-01T05:07:49.942Z,15.42
2018-07-01T05:10:19.123Z,15.44
2018-07-01T05:12:48.527Z,15.48
2018-07-01T05:15:17.687Z,15.52
2018-07-01T05:17:46.903Z,15.67
2018-07-01T05:20:16.071Z,15.68
2018-07-01T05:22:45.264Z,15.66
2018-07-01T05:25:14.495Z,15.71
2018-07-01T05:27:44.071Z,15.78
2018-07-01T05:30:13.388Z,15.85
2018-07-01T05:32:42.555Z,15.95
2018-07-01T05:35:11.711Z,16.04
2018-07-01T05:37:40.894Z,16.02
2018-07-01T05:40:10.056Z,16.15
2018-07-01T05:42:39.379Z,16.22
2018-07-01T05:45:08.606Z,16.30
2018-07-01T05:47:37.803Z,16.48
2018-07-01T05:50:07.524Z,16.65
2018-07-01T05:52:36.737Z,16.66
2018-07-01T05:55:05.990Z,16.77
2018-07-01T05:57:35.721Z,17.02
2018-07-01T06:00:05.831Z,17.37
2018-07-01T06:02:35.016Z,18.52
2018-07-01T06:05:04.243Z,18.78
2018-07-01T06:07:33.406Z,19.35
2018-07-01T06:10:02.627Z,19.68
2018-07-01T06:12:31.852Z,20.30
2018-07-01T06:15:01.032Z,21.11
2018-07-01T06:17:30.183Z,21.75
2018-07-01T06:19:59.364Z,21.60
2018-07-01T06:22:28.539Z,21.71
2018-07-01T06:24:58.039Z,21.70
2018-07-01T06:27:27.210Z,22.25
2018-07-01T06:29:56.402Z,21.88
2018-07-01T06:32:25.575Z,22.89
2018-07-01T06:34:54.774Z,23.06
2018-07-01T06:37:23.944Z,23.15
2018-07-01T06:39:53.128Z,22.33
2018-07-01T06:42:22.306Z,23.02
2018-07-01T06:44:51.519Z,22.77
2018-07-01T06:47:21.397Z,22.65
2018-07-01T06:49:50.599Z,23.23
2018-07-01T06:52:20.045Z,22.97
2018-07-01T06:54:49.219Z,23.64
2018-07-01T06:57:18.403Z,24.49
2018-07-01T06:59:47.653Z,23.45
2018-07-01T07:02:16.813Z,24.15
2018-07-01T07:04:46.039Z,25.34
2018-07-01T07:07:15.218Z,24.79
2018-07-01T07:09:44.435Z,23.63
2018-07-01T07:12:13.615Z,23.88
2018-07-01T07:14:42.847Z,24.90
2018-07-01T07:17:12.027Z,24.62
2018-07-01T07:19:41.222Z,24.58
2018-07-01T07:22:10.523Z,23.75
2018-07-01T07:24:39.943Z,24.43
2018-07-01T07:27:09.248Z,25.84
2018-07-01T07:29:38.551Z,25.13
2018-07-01T07:32:09.919Z,25.34
2018-07-01T07:34:39.083Z,27.04
2018-07-01T07:37:08.251Z,27.05
2018-07-01T07:39:37.423Z,26.59
2018-07-01T07:42:06.626Z,26.36
2018-07-01T07:44:35.799Z,27.60
2018-07-01T07:47:04.999Z,27.73
2018-07-01T07:49:34.147Z,28.61
2018-07-01T07:52:03.319Z,28.46
2018-07-01T07:54:32.495Z,29.14
2018-07-01T07:57:01.667Z,28.09
2018-07-01T07:59:30.818Z,29.15
2018-07-01T08:02:00.066Z,29.22
2018-07-01T08:04:29.183Z,29.55
2018-07-01T08:06:58.359Z,29.09
2018-07-01T08:09:27.507Z,28.42
2018-07-01T08:11:56.833Z,28.77
2018-07-01T08:14:25.978Z,28.82
2018-07-01T08:16:55.183Z,29.05
2018-07-01T08:19:24.346Z,29.50
2018-07-01T08:21:53.586Z,29.55
2018-07-01T08:24:22.679Z,29.24
2018-07-01T08:26:52.059Z,29.83
2018-07-01T08:29:21.207Z,29.97
2018-07-01T08:31:50.391Z,29.78
2018-07-01T08:34:19.555Z,31.06
2018-07-01T08:36:49.026Z,30.41
2018-07-01T08:39:18.513Z,29.83
2018-07-01T08:42:40.153Z,30.34
2018-07-01T08:45:09.687Z,30.77
2018-07-01T08:47:38.835Z,31.03
2018-07-01T08:50:08.265Z,32.20
2018-07-01T08:52:37.546Z,31.01
2018-07-01T08:55:06.672Z,31.18
2018-07-01T08:57:35.887Z,32.02
2018-07-01T09:00:06.212Z,31.72
2018-07-01T09:02:35.406Z,31.09
2018-07-01T09:05:04.798Z,32.40
2018-07-01T09:07:33.991Z,29.00
2018-07-01T09:10:03.170Z,28.91
2018-07-01T09:12:32.335Z,30.85
2018-07-01T09:15:01.496Z,30.91
2018-07-01T09:17:30.648Z,31.11
2018-07-01T09:20:00.134Z,31.97
2018-07-01T09:22:29.296Z,30.56
2018-07-01T09:24:58.450Z,30.06
2018-07-01T09:27:27.627Z,31.12
2018-07-01T09:29:59.802Z,32.31
2018-07-01T09:32:29.327Z,31.14
2018-07-01T09:34:58.510Z,30.89
2018-07-01T09:37:27.659Z,31.79
2018-07-01T09:39:56.895Z,33.37
2018-07-01T09:42:26.024Z,33.64
2018-07-01T09:44:55.195Z,31.96
2018-07-01T09:47:24.359Z,31.59
2018-07-01T09:49:53.555Z,33.20
2018-07-01T09:52:22.783Z,32.08
2018-07-01T09:54:51.955Z,33.30
2018-07-01T09:57:21.119Z,33.36
2018-07-01T09:59:50.319Z,34.03
2018-07-01T10:02:19.742Z,33.18
2018-07-01T10:04:48.907Z,32.97
2018-07-01T10:07:18.175Z,34.45
2018-07-01T10:09:47.387Z,33.04
2018-07-01T10:12:16.599Z,33.48
2018-07-01T10:14:45.790Z,33.80
2018-07-01T10:17:14.948Z,33.61
2018-07-01T10:19:44.315Z,33.31
2018-07-01T10:22:13.855Z,33.88
2018-07-01T10:24:42.996Z,32.17
2018-07-01T10:27:12.711Z,33.53
2018-07-01T10:29:41.886Z,34.33
2018-07-01T10:32:11.296Z,34.21
2018-07-01T10:34:40.450Z,32.18
2018-07-01T10:37:10.381Z,32.10
2018-07-01T10:39:39.927Z,33.95
2018-07-01T10:42:09.235Z,34.58
2018-07-01T10:44:38.390Z,35.76
2018-07-01T10:47:07.708Z,33.59
2018-07-01T10:49:36.878Z,33.88
2018-07-01T10:52:06.123Z,35.53
2018-07-01T10:54:35.367Z,34.54
2018-07-01T10:57:04.788Z,35.81
2018-07-01T10:59:33.963Z,35.09
2018-07-01T11:02:03.387Z,33.95
2018-07-01T11:04:32.559Z,33.85
2018-07-01T11:07:02.024Z,34.79
2018-07-01T11:09:31.403Z,34.43
2018-07-01T11:12:00.576Z,35.41
2018-07-01T11:14:29.739Z,35.15
2018-07-01T11:16:58.927Z,35.23
2018-07-01T11:19:28.090Z,34.50
2018-07-01T11:21:57.276Z,32.15
2018-07-01T11:24:26.426Z,33.08
2018-07-01T11:26:55.705Z,34.53
2018-07-01T11:29:24.747Z,36.36
2018-07-01T11:31:53.944Z,35.73
2018-07-01T11:34:23.110Z,35.31
2018-07-01T11:36:52.288Z,35.93
2018-07-01T11:39:21.468Z,35.03
2018-07-01T11:41:50.627Z,36.17
2018-07-01T11:44:19.810Z,35.94
2018-07-01T11:46:48.991Z,36.20
2018-07-01T11:49:18.164Z,36.44
2018-07-01T11:51:47.755Z,34.87
2018-07-01T11:54:16.939Z,34.72
2018-07-01T11:56:46.133Z,35.46
2018-07-01T11:59:15.384Z,35.38
2018-07-01T12:01:44.627Z,35.04
2018-07-01T12:04:13.815Z,33.41
2018-07-01T12:06:42.957Z,33.25
2018-07-01T12:09:12.179Z,33.45
2018-07-01T12:11:41.418Z,35.21
2018-07-01T12:14:13.617Z,34.77
2018-07-01T12:16:43.828Z,36.20
2018-07-01T12:19:13.020Z,36.85
2018-07-01T12:21:42.464Z,34.54
2018-07-01T12:24:11.676Z,34.95
2018-07-01T12:26:40.867Z,36.14
2018-07-01T12:29:10.043Z,36.74
2018-07-01T12:31:39.322Z,35.69
2018-07-01T12:34:08.515Z,35.00
2018-07-01T12:36:37.658Z,34.82
2018-07-01T12:39:09.271Z,32.30
2018-07-01T12:41:38.487Z,33.10
2018-07-01T12:44:07.695Z,32.94
2018-07-01T12:46:36.861Z,34.69
2018-07-01T12:49:06.059Z,34.57
2018-07-01T12:51:35.231Z,33.91
2018-07-01T12:54:04.443Z,35.59
2018-07-01T12:56:33.615Z,35.46
2018-07-01T12:59:02.779Z,35.35
2018-07-01T13:01:31.951Z,34.08
2018-07-01T13:04:01.138Z,32.93
2018-07-01T13:06:30.283Z,33.44
2018-07-01T13:08:59.454Z,33.52
2018-07-01T13:11:28.691Z,33.80
2018-07-01T13:13:58.988Z,34.82
2018-07-01T13:16:28.571Z,35.85
2018-07-01T13:18:57.733Z,34.62
2018-07-01T13:21:26.899Z,34.39
2018-07-01T13:23:56.078Z,35.05
2018-07-01T13:26:25.519Z,35.51
2018-07-01T13:28:54.778Z,34.82
2018-07-01T13:31:24.218Z,32.70
2018-07-01T13:33:53.495Z,32.43
2018-07-01T13:36:23.067Z,33.58
2018-07-01T13:38:52.559Z,34.09
2018-07-01T13:41:21.775Z,35.05
2018-07-01T13:43:51.031Z,35.02
2018-07-01T13:46:20.527Z,34.34
2018-07-01T13:48:49.698Z,33.57
2018-07-01T13:51:19.043Z,34.05
2018-07-01T13:53:48.309Z,34.84
2018-07-01T13:56:17.499Z,33.25
2018-07-01T13:58:46.659Z,34.01
2018-07-01T14:01:15.856Z,33.14
2018-07-01T14:03:45.017Z,33.03
2018-07-01T14:06:14.220Z,32.94
2018-07-01T14:08:43.449Z,31.90
2018-07-01T14:11:12.543Z,31.71
2018-07-01T14:13:41.747Z,31.44
2018-07-01T14:16:10.939Z,31.21
2018-07-01T14:18:40.079Z,32.15
2018-07-01T14:21:09.398Z,33.04
2018-07-01T14:23:38.651Z,33.00
2018-07-01T14:26:08.075Z,32.67
2018-07-01T14:28:37.291Z,33.04
2018-07-01T14:31:06.487Z,32.86
2018-07-01T14:33:35.664Z,33.14
2018-07-01T14:36:05.028Z,31.06
2018-07-01T14:38:34.315Z,30.82
2018-07-01T14:41:03.565Z,30.51
2018-07-01T14:43:32.752Z,30.54
2018-07-01T14:46:02.015Z,31.00
2018-07-01T14:48:31.739Z,30.16
2018-07-01T14:51:00.911Z,30.46
2018-07-01T14:53:30.095Z,30.20
2018-07-01T14:55:59.268Z,30.69
2018-07-01T14:58:28.539Z,30.64
2018-07-01T15:00:57.932Z,30.51
2018-07-01T15:03:27.569Z,30.80
2018-07-01T15:05:57.008Z,29.13
2018-07-01T15:08:26.187Z,29.13
2018-07-01T15:10:55.340Z,29.84
2018-07-01T15:13:24.912Z,29.84
2018-07-01T15:15:54.084Z,29.64
2018-07-01T15:18:23.315Z,29.37
2018-07-01T15:20:52.479Z,29.32
2018-07-01T15:23:21.639Z,29.11
2018-07-01T15:25:50.802Z,29.44
2018-07-01T15:28:20.023Z,29.40
2018-07-01T15:30:49.195Z,29.58
2018-07-01T15:33:18.576Z,28.77
2018-07-01T15:35:47.740Z,28.37
2018-07-01T15:38:16.918Z,27.97
2018-07-01T15:40:46.100Z,27.92
2018-07-01T15:43:15.499Z,28.10
2018-07-01T15:45:44.700Z,28.17
2018-07-01T15:48:13.887Z,27.88
2018-07-01T15:50:43.099Z,27.82
2018-07-01T15:53:12.662Z,27.56
2018-07-01T15:55:41.835Z,27.60
2018-07-01T15:58:10.983Z,27.44
2018-07-01T16:00:41.061Z,27.69
2018-07-01T16:03:10.219Z,28.10
2018-07-01T16:05:39.391Z,27.38
2018-07-01T16:08:08.951Z,27.42
2018-07-01T16:10:38.116Z,27.66
2018-07-01T16:13:07.275Z,27.53
2018-07-01T16:15:36.459Z,27.46
2018-07-01T16:18:05.631Z,27.67
2018-07-01T16:20:34.823Z,27.57
2018-07-01T16:23:04.078Z,27.00
2018-07-01T16:25:42.295Z,27.12
2018-07-01T16:28:16.603Z,26.89
2018-07-01T16:30:46.291Z,26.53
2018-07-01T16:33:15.454Z,26.45
2018-07-01T16:35:44.893Z,26.47
2018-07-01T16:38:14.083Z,26.80
2018-07-01T16:40:44.014Z,26.40
2018-07-01T16:43:13.280Z,26.44
2018-07-01T16:45:42.451Z,26.88
2018-07-01T16:48:11.603Z,27.05
2018-07-01T16:50:40.797Z,27.01
2018-07-01T16:53:09.971Z,26.71
2018-07-01T16:55:39.406Z,26.38
2018-07-01T16:58:08.816Z,25.87
2018-07-01T17:00:37.963Z,26.31
2018-07-01T17:03:07.428Z,26.41
2018-07-01T17:05:36.801Z,26.05
2018-07-01T17:08:05.852Z,26.09
2018-07-01T17:10:35.054Z,25.93
2018-07-01T17:13:04.261Z,26.08
2018-07-01T17:15:33.415Z,25.92
2018-07-01T17:18:02.947Z,25.61
2018-07-01T17:20:32.459Z,25.58
2018-07-01T17:23:01.919Z,25.49
2018-07-01T17:25:31.322Z,25.71
2018-07-01T17:28:00.496Z,25.76
2018-07-01T17:30:29.779Z,25.53
2018-07-01T17:33:04.183Z,25.47
2018-07-01T17:35:33.377Z,25.43
2018-07-01T17:38:02.702Z,25.36
2018-07-01T17:40:32.843Z,25.36
2018-07-01T17:43:02.023Z,25.29
2018-07-01T17:45:31.179Z,25.16
2018-07-01T17:48:00.558Z,25.00
2018-07-01T17:50:30.261Z,24.95
2018-07-01T17:52:59.562Z,24.96
2018-07-01T17:55:28.714Z,24.79
2018-07-01T17:57:58.055Z,24.84
2018-07-01T18:00:28.259Z,24.75
2018-07-01T18:02:57.423Z,24.71
2018-07-01T18:05:26.598Z,24.80
2018-07-01T18:07:55.795Z,24.69
2018-07-01T18:10:25.182Z,24.50
2018-07-01T18:12:54.459Z,24.44
2018-07-01T18:15:23.939Z,24.36
2018-07-01T18:17:53.107Z,24.28
2018-07-01T18:20:22.270Z,24.11
2018-07-01T18:23:18.237Z,24.07
2018-07-01T18:25:21.075Z,23.91
2018-07-01T18:27:59.949Z,23.99
2018-07-01T18:30:19.439Z,23.87
2018-07-01T18:32:48.603Z,23.77
2018-07-01T18:35:17.796Z,23.78
2018-07-01T18:37:47.008Z,23.76
2018-07-01T18:40:16.201Z,23.70
2018-07-01T18:42:46.080Z,23.49
2018-07-01T18:45:16.024Z,23.50
2018-07-01T18:47:45.235Z,23.29
2018-07-01T18:50:14.395Z,23.26
2018-07-01T18:52:44.508Z,23.18
2018-07-01T18:55:14.199Z,23.12
2018-07-01T18:57:43.355Z,22.97
2018-07-01T19:00:12.627Z,22.84
2018-07-01T19:02:41.748Z,22.77
2018-07-01T19:05:10.947Z,22.65
2018-07-01T19:07:40.509Z,22.59
2018-07-01T19:10:09.680Z,22.48
2018-07-01T19:12:39.407Z,22.24
2018-07-01T19:15:08.655Z,22.26
2018-07-01T19:17:37.835Z,22.09
2018-07-01T19:20:07.222Z,21.91
2018-07-01T19:22:36.511Z,21.78
2018-07-01T19:25:05.763Z,21.63
2018-07-01T19:27:34.942Z,21.54
2018-07-01T19:30:04.987Z,21.54
2018-07-01T19:32:34.247Z,21.25
2018-07-01T19:35:03.463Z,21.23
2018-07-01T19:37:32.863Z,21.09
2018-07-01T19:40:02.055Z,20.78
2018-07-01T19:42:31.881Z,20.48
2018-07-01T19:45:01.576Z,20.28
2018-07-01T19:47:30.738Z,20.23
2018-07-01T19:49:59.891Z,20.05
2018-07-01T19:52:29.154Z,19.94
2018-07-01T19:54:58.215Z,19.99
2018-07-01T19:57:27.899Z,19.72
2018-07-01T19:59:57.059Z,19.62
2018-07-01T20:02:26.243Z,19.35
2018-07-01T20:04:55.396Z,19.23
2018-07-01T20:07:24.700Z,19.08
2018-07-01T20:09:53.868Z,19.17
2018-07-01T20:12:23.039Z,19.24
2018-07-01T20:14:52.271Z,19.17
2018-07-01T20:17:21.467Z,19.27
2018-07-01T20:19:51.095Z,19.46
2018-07-01T20:22:20.271Z,19.47
2018-07-01T20:24:49.700Z,19.49
2018-07-01T20:27:19.244Z,19.32
2018-07-01T20:29:48.375Z,19.20
2018-07-01T20:32:17.737Z,19.10
2018-07-01T20:34:47.265Z,19.02
2018-07-01T20:37:16.602Z,19.01
2018-07-01T20:39:45.775Z,19.07
2018-07-01T20:42:14.943Z,18.99
2018-07-01T20:44:44.209Z,19.01
2018-07-01T20:47:13.787Z,19.01
2018-07-01T20:49:42.968Z,18.85
2018-07-01T20:52:12.763Z,18.74
2018-07-01T20:54:41.995Z,18.54
2018-07-01T20:57:11.163Z,18.36
2018-07-01T20:59:40.343Z,18.38
2018-07-01T21:02:09.527Z,18.27
2018-07-01T21:04:38.732Z,18.35
2018-07-01T21:07:07.891Z,18.49
2018-07-01T21:09:37.387Z,18.49
2018-07-01T21:12:06.592Z,18.52
2018-07-01T21:14:36.267Z,18.60
2018-07-01T21:17:05.447Z,18.60
2018-07-01T21:19:34.643Z,18.60
2018-07-01T21:22:03.824Z,18.67
2018-07-01T21:24:33.247Z,18.68
2018-07-01T21:27:03.128Z,18.64
2018-07-01T21:29:32.332Z,18.57
2018-07-01T21:32:02.667Z,18.51
2018-07-01T21:34:31.783Z,18.57
2018-07-01T21:37:01.307Z,18.45
2018-07-01T21:39:30.807Z,18.49
2018-07-01T21:42:00.503Z,18.39
2018-07-01T21:44:30.082Z,18.44
2018-07-01T21:46:59.300Z,18.32
2018-07-01T21:49:28.483Z,18.30
2018-07-01T21:51:57.654Z,18.31
2018-07-01T21:54:26.828Z,18.20
2018-07-01T21:56:56.199Z,18.18
2018-07-01T21:59:25.410Z,18.14
2018-07-01T22:01:54.650Z,18.04
2018-07-01T22:04:23.807Z,18.00
2018-07-01T22:06:58.951Z,17.91
2018-07-01T22:09:30.279Z,17.82
2018-07-01T22:13:08.092Z,17.72
2018-07-01T22:15:48.543Z,17.82
2018-07-01T22:18:17.695Z,17.70
2018-07-01T22:20:46.875Z,17.65
2018-07-01T22:23:16.179Z,17.57
2018-07-01T22:25:45.371Z,17.52
2018-07-01T22:28:14.563Z,17.39
2018-07-01T22:30:43.755Z,17.27
2018-07-01T22:33:12.928Z,17.26
2018-07-01T22:35:42.090Z,17.17
2018-07-01T22:38:11.679Z,17.07
2018-07-01T22:40:40.863Z,16.93
2018-07-01T22:43:10.543Z,16.89
2018-07-01T22:45:40.068Z,16.89
2018-07-01T22:48:09.235Z,16.86
2018-07-01T22:50:38.426Z,16.76
2018-07-01T22:53:07.649Z,16.72
2018-07-01T22:55:36.778Z,16.73
2018-07-01T22:58:06.151Z,16.70
2018-07-01T23:00:35.358Z,16.52
2018-07-01T23:03:16.039Z,16.64
2018-07-01T23:05:44.952Z,16.48
2018-07-01T23:08:14.123Z,16.42
2018-07-01T23:10:43.286Z,16.47
2018-07-01T23:13:12.427Z,16.48
2018-07-01T23:15:41.611Z,16.40
2018-07-01T23:18:11.160Z,16.25
2018-07-01T23:20:40.327Z,16.22
2018-07-01T23:23:09.542Z,16.10
2018-07-01T23:25:38.727Z,16.10
2018-07-01T23:28:08.187Z,16.07
2018-07-01T23:30:37.560Z,15.96
2018-07-01T23:33:07.548Z,15.89
2018-07-01T23:35:36.715Z,15.93
2018-07-01T23:38:05.934Z,15.95
2018-07-01T23:40:35.180Z,15.85
2018-07-01T23:43:04.346Z,15.93
2018-07-01T23:45:33.671Z,15.87
2018-07-01T23:48:03.037Z,15.83
2018-07-01T23:50:32.687Z,15.82
2018-07-01T23:53:02.890Z,15.74
2018-07-01T23:55:32.073Z,15.71
2018-07-01T23:58:01.330Z,15.75
